Time;durP1;ratioP1;P1;durP2;ratioP2;P2;SDS_P1;SDS_P2;PMS_P1;PMS_P2;Temp;Humidity;BMP_temperature;BMP_pressure;BME280_temperature;BME280_humidity;BME280_pressure;Samples;Min_cycle;Max_cycle;Signal;HPM_P1;HPM_P2
2021/10/24 00:00:37;;;;;;;0.00;0.00;;;9.00;99.90;;;;;;6273632;22;20094;-81
2021/10/24 00:03:03;;;;;;;0.00;0.00;;;9.00;99.90;;;;;;6298420;22;20090;-80
2021/10/24 00:05:30;;;;;;;0.00;0.00;;;8.90;99.90;;;;;;6298571;22;20007;-81
2021/10/24 00:07:57;;;;;;;0.00;0.00;;;9.00;99.90;;;;;;6247823;22;20019;-81
2021/10/24 00:10:23;;;;;;;0.00;0.00;;;9.00;99.90;;;;;;6248329;22;20012;-82
2021/10/24 00:12:50;;;;;;;0.10;0.10;;;9.00;99.90;;;;;;6247867;22;20011;-81
2021/10/24 00:15:17;;;;;;;0.00;0.00;;;9.00;99.90;;;;;;6248401;22;20043;-82
2021/10/24 00:17:44;;;;;;;0.08;0.08;;;9.00;99.90;;;;;;6298328;22;20022;-81
2021/10/24 00:20:10;;;;;;;0.10;0.10;;;9.00;99.90;;;;;;6273235;22;20098;-81
2021/10/24 00:22:37;;;;;;;0.00;0.00;;;9.00;99.90;;;;;;6324247;22;20100;-82
2021/10/24 00:25:04;;;;;;;0.05;0.05;;;9.00;99.90;;;;;;6298130;22;20069;-82
2021/10/24 00:27:31;;;;;;;0.00;0.00;;;8.90;99.90;;;;;;6273466;22;20025;-82
2021/10/24 00:29:58;;;;;;;0.00;0.00;;;9.00;99.90;;;;;;6298097;22;20097;-82
2021/10/24 00:32:25;;;;;;;0.00;0.00;;;8.90;99.90;;;;;;6323788;22;20023;-81
2021/10/24 00:34:51;;;;;;;0.10;0.10;;;8.90;99.90;;;;;;6247678;22;20026;-81
2021/10/24 00:37:18;;;;;;;0.00;0.00;;;8.90;99.90;;;;;;6298474;22;20015;-81
2021/10/24 00:39:45;;;;;;;0.00;0.00;;;8.90;99.90;;;;;;6297865;22;20023;-82
2021/10/24 00:42:12;;;;;;;0.00;0.00;;;8.90;99.90;;;;;;6323710;22;20094;-82
2021/10/24 00:44:39;;;;;;;0.00;0.00;;;9.10;99.90;;;;;;6272912;22;20098;-82
2021/10/24 00:47:06;;;;;;;0.10;0.10;;;8.80;99.90;;;;;;6297543;22;20832;-81
2021/10/24 00:49:34;;;;;;;0.00;0.00;;;8.90;99.90;;;;;;6273197;22;20026;-81
2021/10/24 00:52:02;;;;;;;0.03;0.03;;;8.80;99.90;;;;;;6272838;22;20012;-81
2021/10/24 00:54:29;;;;;;;0.03;0.03;;;8.80;99.90;;;;;;6273273;22;20470;-82
2021/10/24 00:56:56;;;;;;;0.00;0.00;;;8.90;99.90;;;;;;6298177;22;20015;-81
2021/10/24 00:59:24;;;;;;;0.13;0.13;;;8.70;99.90;;;;;;6323462;22;20018;-82
2021/10/24 01:01:51;;;;;;;0.00;0.00;;;8.70;99.90;;;;;;6272511;22;20090;-82
2021/10/24 01:04:21;;;;;;;0.00;0.00;;;8.60;99.90;;;;;;6298127;22;20378;-81
2021/10/24 01:06:52;;;;;;;0.00;0.00;;;8.60;99.90;;;;;;6273363;22;20015;-81
2021/10/24 01:09:22;;;;;;;0.00;0.00;;;8.50;99.90;;;;;;6297829;22;20080;-81
2021/10/24 01:11:50;;;;;;;0.10;0.10;;;8.50;99.90;;;;;;6272991;22;20015;-82
2021/10/24 01:14:17;;;;;;;0.00;0.00;;;8.50;99.90;;;;;;6272629;22;20047;-81
2021/10/24 01:16:44;;;;;;;0.10;0.10;;;8.40;99.90;;;;;;6272895;22;20058;-82
2021/10/24 01:19:12;;;;;;;0.05;0.05;;;8.40;99.90;;;;;;6272265;22;20015;-81
2021/10/24 01:21:39;;;;;;;0.10;0.10;;;8.40;99.90;;;;;;6297996;22;20317;-81
2021/10/24 01:24:06;;;;;;;0.10;0.10;;;8.30;99.90;;;;;;6247294;22;20029;-81
2021/10/24 01:26:37;;;;;;;0.10;0.10;;;8.30;99.90;;;;;;6272679;22;20478;-81
2021/10/24 01:29:06;;;;;;;0.10;0.10;;;8.30;99.90;;;;;;6297765;22;20012;-81
2021/10/24 01:31:34;;;;;;;0.10;0.10;;;8.20;99.90;;;;;;6297980;22;20395;-81
2021/10/24 01:34:01;;;;;;;0.10;0.10;;;8.20;99.90;;;;;;6297256;22;20023;-81
2021/10/24 01:36:28;;;;;;;0.00;0.00;;;8.20;99.90;;;;;;6272502;22;20019;-81
2021/10/24 01:38:55;;;;;;;0.10;0.10;;;8.10;99.90;;;;;;6297327;22;20352;-82
2021/10/24 01:41:27;;;;;;;0.10;0.10;;;8.10;99.90;;;;;;6247285;22;20715;-81
2021/10/24 01:43:55;;;;;;;0.10;0.10;;;8.10;99.90;;;;;;6273106;22;20015;-81
2021/10/24 01:46:22;;;;;;;0.00;0.00;;;8.00;99.90;;;;;;6297639;22;20086;-81
2021/10/24 01:48:49;;;;;;;0.00;0.00;;;8.00;99.90;;;;;;6297632;22;20021;-81
2021/10/24 01:51:16;;;;;;;0.03;0.03;;;8.00;99.90;;;;;;6272157;22;20019;-81
2021/10/24 01:53:46;;;;;;;0.00;0.00;;;7.90;99.90;;;;;;6323086;22;20076;-81
2021/10/24 01:56:13;;;;;;;0.10;0.10;;;7.90;99.90;;;;;;6322609;22;20023;-81
2021/10/24 01:58:40;;;;;;;0.00;0.00;;;7.80;99.90;;;;;;6322905;22;20513;-80
2021/10/24 02:01:07;;;;;;;0.10;0.10;;;7.80;99.90;;;;;;6271532;22;20016;-81
2021/10/24 02:03:36;;;;;;;0.10;0.10;;;7.70;99.90;;;;;;6297501;22;20011;-81
2021/10/24 02:06:04;;;;;;;0.00;0.00;;;7.80;99.90;;;;;;6297534;22;20015;-81
2021/10/24 02:08:31;;;;;;;0.10;0.10;;;7.70;99.90;;;;;;6297493;22;20045;-82
2021/10/24 02:10:59;;;;;;;0.10;0.10;;;7.70;99.90;;;;;;6322960;22;20440;-81
2021/10/24 02:13:26;;;;;;;0.00;0.00;;;7.70;99.90;;;;;;6247649;22;20094;-81
2021/10/24 02:15:52;;;;;;;0.05;0.05;;;7.60;99.90;;;;;;6272463;22;20058;-82
2021/10/24 02:18:19;;;;;;;0.00;0.00;;;7.60;99.90;;;;;;6272037;22;20025;-81
2021/10/24 02:20:46;;;;;;;0.00;0.00;;;7.60;99.90;;;;;;6297565;22;20399;-82
2021/10/24 02:23:13;;;;;;;0.10;0.10;;;7.60;99.90;;;;;;6297097;22;20018;-81
2021/10/24 02:25:40;;;;;;;6.30;0.30;;;7.50;99.90;;;;;;6297476;22;20007;-81
2021/10/24 02:28:07;;;;;;;0.10;0.10;;;7.50;99.90;;;;;;6296874;22;20015;-81
2021/10/24 02:30:35;;;;;;;0.10;0.10;;;7.40;99.90;;;;;;6247208;22;20014;-81
2021/10/24 02:33:02;;;;;;;0.20;0.20;;;7.40;99.90;;;;;;6247076;22;20019;-81
2021/10/24 02:35:29;;;;;;;0.10;0.10;;;7.40;99.90;;;;;;6272111;22;20015;-81
2021/10/24 02:37:56;;;;;;;0.10;0.10;;;7.40;99.90;;;;;;6296893;22;20015;-81
2021/10/24 02:40:23;;;;;;;0.10;0.10;;;7.30;99.90;;;;;;6246806;22;20058;-81
2021/10/24 02:42:51;;;;;;;0.10;0.10;;;7.30;99.90;;;;;;6322614;22;20022;-81
2021/10/24 02:45:18;;;;;;;0.10;0.10;;;7.20;99.90;;;;;;6272080;22;20512;-81
2021/10/24 02:47:45;;;;;;;0.10;0.10;;;7.30;99.90;;;;;;6272016;22;20073;-80
2021/10/24 02:50:12;;;;;;;0.00;0.00;;;7.40;99.90;;;;;;6296980;22;20019;-81
2021/10/24 02:52:39;;;;;;;0.10;0.10;;;7.10;99.90;;;;;;6297356;22;20015;-81
2021/10/24 02:55:07;;;;;;;0.10;0.10;;;7.40;99.90;;;;;;6296871;22;20023;-81
2021/10/24 02:57:34;;;;;;;0.10;0.10;;;7.00;99.90;;;;;;6298000;22;20102;-81
2021/10/24 03:00:01;;;;;;;0.10;0.10;;;6.90;99.90;;;;;;6246545;22;20133;-81
2021/10/24 03:02:28;;;;;;;0.10;0.10;;;6.90;99.90;;;;;;6246940;22;20443;-81
2021/10/24 03:04:54;;;;;;;0.05;0.05;;;7.00;99.90;;;;;;6322605;22;20026;-81
2021/10/24 03:07:21;;;;;;;0.10;0.10;;;6.90;99.90;;;;;;6296933;22;20099;-81
2021/10/24 03:09:48;;;;;;;0.10;0.10;;;6.90;99.90;;;;;;6323581;22;20041;-81
2021/10/24 03:12:14;;;;;;;0.10;0.10;;;6.90;99.90;;;;;;6273677;22;20019;-81
2021/10/24 03:14:41;;;;;;;0.10;0.10;;;6.80;99.90;;;;;;6273995;22;20015;-81
2021/10/24 03:17:08;;;;;;;0.10;0.10;;;6.80;99.90;;;;;;6298981;22;20081;-81
2021/10/24 03:19:35;;;;;;;0.10;0.10;;;6.80;99.90;;;;;;6248759;22;20019;-81
2021/10/24 03:22:03;;;;;;;0.05;0.05;;;6.70;99.90;;;;;;6248431;22;20463;-81
2021/10/24 03:24:30;;;;;;;0.10;0.10;;;6.70;99.90;;;;;;6249573;22;20023;-81
2021/10/24 03:26:56;;;;;;;0.10;0.10;;;6.70;99.90;;;;;;6248918;22;20011;-80
2021/10/24 03:29:23;;;;;;;0.10;0.10;;;6.70;99.90;;;;;;6298778;22;20456;-81
2021/10/24 03:31:50;;;;;;;0.00;0.00;;;6.70;99.90;;;;;;6324262;22;20015;-81
2021/10/24 03:34:18;;;;;;;0.10;0.10;;;6.60;99.90;;;;;;6298457;22;20015;-80
2021/10/24 03:36:48;;;;;;;0.10;0.10;;;6.60;99.90;;;;;;6249427;22;20422;-81
2021/10/24 03:39:15;;;;;;;0.10;0.10;;;6.60;99.90;;;;;;6273480;22;20023;-81
2021/10/24 03:41:42;;;;;;;0.10;0.10;;;6.50;99.90;;;;;;6273589;22;20085;-81
2021/10/24 03:44:09;;;;;;;0.10;0.10;;;6.70;99.90;;;;;;6298861;22;20019;-81
2021/10/24 03:46:36;;;;;;;0.10;0.10;;;6.50;99.90;;;;;;6298827;22;20025;-81
2021/10/24 03:49:03;;;;;;;0.10;0.10;;;6.50;99.90;;;;;;6299157;22;20015;-81
2021/10/24 03:51:30;;;;;;;0.00;0.00;;;6.40;99.90;;;;;;6298648;22;20026;-81
2021/10/24 03:53:57;;;;;;;0.10;0.10;;;6.40;99.90;;;;;;6273767;22;20015;-81
2021/10/24 03:56:24;;;;;;;0.10;0.10;;;6.40;99.90;;;;;;6273255;22;20019;-81
2021/10/24 03:58:52;;;;;;;0.10;0.10;;;6.30;99.90;;;;;;6248250;22;20019;-81
2021/10/24 04:01:19;;;;;;;0.10;0.10;;;6.30;99.90;;;;;;6248652;22;20444;-81
2021/10/24 04:03:45;;;;;;;0.10;0.10;;;6.20;99.90;;;;;;6248345;22;20077;-81
2021/10/24 04:06:12;;;;;;;0.10;0.10;;;6.30;99.90;;;;;;6248058;22;20015;-81
2021/10/24 04:08:39;;;;;;;0.10;0.10;;;6.20;99.90;;;;;;6248726;22;20023;-81
2021/10/24 04:11:05;;;;;;;0.10;0.10;;;6.20;99.90;;;;;;6273341;22;20093;-80
2021/10/24 04:13:32;;;;;;;0.30;0.30;;;6.20;99.90;;;;;;6298392;22;20459;-81
2021/10/24 04:15:59;;;;;;;0.10;0.10;;;6.20;99.90;;;;;;6298725;22;20026;-81
2021/10/24 04:18:25;;;;;;;0.10;0.10;;;6.10;99.90;;;;;;6298387;22;20356;-81
2021/10/24 04:20:54;;;;;;;0.10;0.10;;;6.00;99.90;;;;;;6298641;22;20022;-81
2021/10/24 04:23:21;;;;;;;0.10;0.10;;;6.00;99.90;;;;;;6298854;22;20016;-81
2021/10/24 04:25:48;;;;;;;0.10;0.10;;;6.00;99.90;;;;;;6248191;22;20456;-81
2021/10/24 04:28:16;;;;;;;0.10;0.10;;;6.00;99.90;;;;;;6297564;22;20077;-81
2021/10/24 04:30:44;;;;;;;0.10;0.10;;;5.90;99.90;;;;;;6248638;22;20045;-81
2021/10/24 04:33:10;;;;;;;0.10;0.10;;;5.90;99.90;;;;;;6247855;22;20011;-81
2021/10/24 04:35:37;;;;;;;0.10;0.10;;;5.80;99.90;;;;;;6298593;22;20039;-81
2021/10/24 04:38:04;;;;;;;0.00;0.00;;;5.80;99.90;;;;;;6272970;22;20015;-81
2021/10/24 04:40:31;;;;;;;0.10;0.10;;;5.70;99.90;;;;;;6273044;22;20343;-81
2021/10/24 04:42:57;;;;;;;0.10;0.10;;;5.70;99.90;;;;;;6272843;22;20011;-81
2021/10/24 04:45:24;;;;;;;0.10;0.10;;;5.70;99.90;;;;;;6247571;22;20026;-81
2021/10/24 04:47:51;;;;;;;0.10;0.10;;;5.70;99.90;;;;;;6247813;22;20098;-81
2021/10/24 04:50:18;;;;;;;0.08;0.08;;;5.70;99.90;;;;;;6272640;22;20026;-81
2021/10/24 04:52:44;;;;;;;0.20;0.20;;;5.60;99.90;;;;;;6298160;22;20448;-81
2021/10/24 04:55:11;;;;;;;0.10;0.10;;;5.70;99.90;;;;;;6272897;22;20018;-81
2021/10/24 04:57:38;;;;;;;0.10;0.10;;;6.00;99.90;;;;;;6297873;22;20056;-82
2021/10/24 05:00:06;;;;;;;0.10;0.10;;;5.80;99.90;;;;;;6272772;22;20149;-81
2021/10/24 05:02:34;;;;;;;0.10;0.10;;;5.60;99.90;;;;;;6272784;22;20015;-80
2021/10/24 05:05:01;;;;;;;0.10;0.10;;;5.50;99.90;;;;;;6297949;22;20026;-81
2021/10/24 05:07:28;;;;;;;0.10;0.10;;;5.50;99.90;;;;;;6272341;22;20444;-80
2021/10/24 05:09:55;;;;;;;0.10;0.10;;;5.70;99.90;;;;;;6247904;22;20026;-81
2021/10/24 05:12:21;;;;;;;0.10;0.10;;;5.60;99.90;;;;;;6297592;22;20019;-81
2021/10/24 05:14:48;;;;;;;0.10;0.10;;;5.50;99.90;;;;;;6298287;22;20019;-81
2021/10/24 05:17:15;;;;;;;0.10;0.10;;;5.40;99.90;;;;;;6322932;22;20019;-81
2021/10/24 05:19:42;;;;;;;0.10;0.10;;;5.50;99.90;;;;;;6247445;22;20444;-81
2021/10/24 05:22:09;;;;;;;0.28;0.28;;;5.50;99.90;;;;;;6273061;22;20011;-81
2021/10/24 05:24:35;;;;;;;0.10;0.10;;;5.50;99.90;;;;;;6272252;22;20026;-81
2021/10/24 05:27:02;;;;;;;0.10;0.10;;;5.50;99.90;;;;;;6247365;22;20023;-80
2021/10/24 05:29:29;;;;;;;0.10;0.10;;;5.50;99.90;;;;;;6247058;22;20015;-81
2021/10/24 05:31:56;;;;;;;0.10;0.10;;;5.40;99.90;;;;;;6297444;22;20014;-80
2021/10/24 05:34:23;;;;;;;0.10;0.10;;;5.40;99.90;;;;;;6247908;22;20054;-81
2021/10/24 05:36:50;;;;;;;0.15;0.15;;;5.40;99.90;;;;;;6272956;22;20019;-81
2021/10/24 05:39:17;;;;;;;0.10;0.10;;;5.40;99.90;;;;;;6272346;22;20016;-81
2021/10/24 05:41:43;;;;;;;0.05;0.05;;;5.30;99.90;;;;;;6297700;22;20065;-80
2021/10/24 05:44:12;;;;;;;0.10;0.10;;;5.30;99.90;;;;;;6297665;22;20022;-81
2021/10/24 05:46:39;;;;;;;0.10;0.10;;;5.30;99.90;;;;;;6297465;22;20019;-80
2021/10/24 05:49:07;;;;;;;0.10;0.10;;;5.30;99.90;;;;;;6272553;22;20446;-80
2021/10/24 05:51:34;;;;;;;0.08;0.08;;;5.30;99.90;;;;;;6297642;22;20097;-81
2021/10/24 05:54:00;;;;;;;0.10;0.10;;;5.20;99.90;;;;;;6297175;22;20051;-80
2021/10/24 05:56:27;;;;;;;0.10;0.10;;;5.30;99.90;;;;;;6246212;22;20448;-81
2021/10/24 05:58:54;;;;;;;0.10;0.10;;;5.20;99.90;;;;;;6271331;22;20053;-81
2021/10/24 06:01:21;;;;;;;0.17;0.17;;;5.50;99.90;;;;;;6246132;22;20007;-81
2021/10/24 06:03:47;;;;;;;0.10;0.10;;;5.20;99.90;;;;;;6271425;22;20456;-81
2021/10/24 06:06:14;;;;;;;0.10;0.10;;;5.10;99.90;;;;;;6296943;22;20448;-81
2021/10/24 06:08:41;;;;;;;0.10;0.10;;;5.20;99.90;;;;;;6246180;22;20444;-81
2021/10/24 06:13:50;;;;;;;0.10;0.10;;;5.40;99.90;;;;;;6322861;22;20406;-81
2021/10/24 06:16:17;;;;;;;0.10;0.10;;;5.10;99.90;;;;;;6271955;22;20046;-81
2021/10/24 06:18:44;;;;;;;0.10;0.10;;;5.10;99.90;;;;;;6296300;22;20016;-80
2021/10/24 06:21:12;;;;;;;0.10;0.10;;;5.00;99.90;;;;;;6322176;22;20047;-80
2021/10/24 06:23:39;;;;;;;0.10;0.10;;;5.00;99.90;;;;;;6296634;22;20057;-80
2021/10/24 06:26:05;;;;;;;0.20;0.20;;;5.00;99.90;;;;;;6296735;22;20023;-81
2021/10/24 06:28:32;;;;;;;0.10;0.10;;;5.00;99.90;;;;;;6271685;22;20053;-80
2021/10/24 06:30:59;;;;;;;0.10;0.10;;;5.00;99.90;;;;;;6246979;22;20455;-81
2021/10/24 06:33:26;;;;;;;0.20;0.20;;;5.10;99.90;;;;;;6246429;22;20023;-81
2021/10/24 06:35:52;;;;;;;0.10;0.10;;;4.90;99.90;;;;;;6297367;22;20448;-80
2021/10/24 06:38:20;;;;;;;0.10;0.10;;;5.00;99.90;;;;;;6271712;22;20027;-81
2021/10/24 06:40:47;;;;;;;0.55;0.20;;;5.10;99.90;;;;;;6296970;22;20077;-80
2021/10/24 06:43:14;;;;;;;0.10;0.10;;;5.30;99.90;;;;;;6296986;22;20444;-80
2021/10/24 06:45:41;;;;;;;0.20;0.20;;;5.00;99.90;;;;;;6272954;22;20027;-80
2021/10/24 06:48:08;;;;;;;0.10;0.10;;;5.70;99.90;;;;;;6299428;22;20022;-80
2021/10/24 06:50:35;;;;;;;0.47;0.47;;;5.00;99.90;;;;;;6324456;22;20050;-80
2021/10/24 06:53:02;;;;;;;0.10;0.10;;;5.00;99.90;;;;;;6273837;22;20027;-80
2021/10/24 06:55:29;;;;;;;0.10;0.10;;;4.90;99.90;;;;;;6273281;22;20020;-81
2021/10/24 06:57:56;;;;;;;0.10;0.10;;;5.00;99.90;;;;;;6324325;22;20416;-81
2021/10/24 07:00:26;;;;;;;0.10;0.10;;;5.00;99.90;;;;;;6299107;22;20015;-81
2021/10/24 07:02:53;;;;;;;0.10;0.10;;;5.00;99.90;;;;;;6274066;22;20011;-81
2021/10/24 07:05:21;;;;;;;0.10;0.10;;;5.00;99.90;;;;;;6324299;22;20094;-81
2021/10/24 07:07:48;;;;;;;0.15;0.15;;;5.00;99.90;;;;;;6298523;22;20011;-81
2021/10/24 07:10:16;;;;;;;0.10;0.10;;;5.00;99.90;;;;;;6248617;22;20062;-81
2021/10/24 07:12:44;;;;;;;0.10;0.10;;;5.10;99.90;;;;;;6323875;22;20022;-81
2021/10/24 07:15:11;;;;;;;0.10;0.10;;;5.20;99.90;;;;;;6324610;22;20317;-81
2021/10/24 07:17:38;;;;;;;0.10;0.10;;;5.10;99.90;;;;;;6298339;22;20084;-80
2021/10/24 07:20:06;;;;;;;0.20;0.20;;;5.10;99.90;;;;;;6298728;22;20025;-81
2021/10/24 07:22:32;;;;;;;0.20;0.20;;;5.10;99.90;;;;;;6298415;22;20011;-81
2021/10/24 07:25:00;;;;;;;0.10;0.10;;;5.20;99.90;;;;;;6275396;22;20106;-81
2021/10/24 07:27:26;;;;;;;0.17;0.17;;;5.20;99.90;;;;;;6273209;22;20011;-81
2021/10/24 07:29:53;;;;;;;0.10;0.10;;;5.30;99.90;;;;;;6273215;22;20083;-81
2021/10/24 07:32:20;;;;;;;0.20;0.20;;;5.30;99.90;;;;;;6248317;22;20019;-81
2021/10/24 07:34:47;;;;;;;0.10;0.10;;;5.30;99.90;;;;;;6273253;22;20317;-81
2021/10/24 07:37:14;;;;;;;0.10;0.10;;;5.30;99.90;;;;;;6248663;22;20064;-80
2021/10/24 07:39:41;;;;;;;0.10;0.10;;;5.40;99.90;;;;;;6272992;22;20379;-81
2021/10/24 07:42:10;;;;;;;0.10;0.10;;;5.40;99.90;;;;;;6273340;22;20018;-81
2021/10/24 07:44:38;;;;;;;0.10;0.10;;;5.40;99.90;;;;;;6298073;22;20800;-81
2021/10/24 07:47:04;;;;;;;0.10;0.10;;;5.80;99.90;;;;;;6298529;22;20016;-81
2021/10/24 07:49:32;;;;;;;0.13;0.13;;;5.50;99.90;;;;;;6298523;22;20398;-81
2021/10/24 07:51:59;;;;;;;0.10;0.10;;;5.50;99.90;;;;;;6273348;22;20038;-81
2021/10/24 07:54:26;;;;;;;0.10;0.10;;;6.10;99.90;;;;;;6273108;22;20019;-81
2021/10/24 07:56:53;;;;;;;0.10;0.10;;;5.60;99.90;;;;;;6272748;22;20038;-81
2021/10/24 07:59:20;;;;;;;0.10;0.10;;;5.60;99.90;;;;;;6298785;22;20019;-81
2021/10/24 08:01:47;;;;;;;0.13;0.13;;;5.70;99.90;;;;;;6298007;22;20669;-81
2021/10/24 08:04:14;;;;;;;0.10;0.10;;;6.40;99.90;;;;;;6248166;22;20007;-80
2021/10/24 08:06:41;;;;;;;0.10;0.10;;;5.80;99.90;;;;;;6272794;22;20090;-81
2021/10/24 08:09:10;;;;;;;0.30;0.30;;;5.80;99.90;;;;;;6273306;22;20023;-81
2021/10/24 08:11:38;;;;;;;0.10;0.10;;;5.90;99.90;;;;;;6297864;22;20016;-81
2021/10/24 08:14:06;;;;;;;0.10;0.10;;;6.00;99.90;;;;;;6273492;22;20015;-81
2021/10/24 08:16:35;;;;;;;0.10;0.10;;;6.00;99.90;;;;;;6324076;22;20019;-81
2021/10/24 08:19:02;;;;;;;0.10;0.10;;;6.10;99.90;;;;;;6298299;22;20562;-81
2021/10/24 08:21:30;;;;;;;0.10;0.10;;;6.40;99.90;;;;;;6298399;22;20049;-81
2021/10/24 08:23:56;;;;;;;0.03;0.03;;;6.20;99.90;;;;;;6297973;22;20015;-81
2021/10/24 08:26:23;;;;;;;0.10;0.10;;;6.40;99.90;;;;;;6298471;22;20018;-81
2021/10/24 08:28:50;;;;;;;0.10;0.10;;;6.50;99.90;;;;;;6298009;22;20037;-81
2021/10/24 08:31:24;;;;;;;0.10;0.10;;;6.50;99.90;;;;;;6324095;22;20073;-81
2021/10/24 08:33:53;;;;;;;0.00;0.00;;;6.70;99.90;;;;;;6323866;22;20055;-81
2021/10/24 08:36:20;;;;;;;0.10;0.10;;;6.70;99.90;;;;;;6298385;22;20016;-81
2021/10/24 08:38:47;;;;;;;0.10;0.10;;;6.80;99.90;;;;;;6272542;22;20102;-81
2021/10/24 08:41:22;;;;;;;0.30;0.30;;;6.90;99.90;;;;;;6272922;22;20022;-81
2021/10/24 08:43:52;;;;;;;0.10;0.10;;;7.00;99.90;;;;;;6297946;22;20057;-81
2021/10/24 08:46:20;;;;;;;0.10;0.10;;;7.10;99.90;;;;;;6297754;22;20045;-81
2021/10/24 08:48:48;;;;;;;0.20;0.20;;;7.20;99.90;;;;;;6272306;22;20015;-81
2021/10/24 08:51:15;;;;;;;0.22;0.22;;;7.30;99.90;;;;;;6273405;22;20467;-81
2021/10/24 08:53:44;;;;;;;0.10;0.10;;;7.40;99.90;;;;;;6248372;22;20050;-81
2021/10/24 08:56:25;;;;;;;0.10;0.10;;;7.50;99.90;;;;;;6272643;22;20456;-81
2021/10/24 08:58:52;;;;;;;0.52;0.52;;;7.60;99.90;;;;;;6274155;22;20012;-81
2021/10/24 09:01:19;;;;;;;0.10;0.10;;;7.70;99.90;;;;;;6272918;22;20015;-81
2021/10/24 09:04:09;;;;;;;0.10;0.10;;;7.80;99.90;;;;;;6323113;22;20018;-81
2021/10/24 09:06:57;;;;;;;0.10;0.10;;;7.90;99.90;;;;;;6323178;22;20022;-81
2021/10/24 09:09:30;;;;;;;0.10;0.10;;;8.00;99.90;;;;;;6297798;22;20038;-81
2021/10/24 09:12:02;;;;;;;0.10;0.10;;;8.10;99.90;;;;;;6297611;22;20348;-81
2021/10/24 09:14:52;;;;;;;0.15;0.15;;;8.20;99.90;;;;;;6297701;22;20094;-81
2021/10/24 09:17:24;;;;;;;0.10;0.10;;;8.30;99.90;;;;;;6297794;22;20015;-81
2021/10/24 09:19:56;;;;;;;0.45;0.43;;;8.30;99.90;;;;;;6297375;22;20110;-81
2021/10/24 09:22:32;;;;;;;0.10;0.10;;;8.40;99.90;;;;;;6297764;22;20344;-81
2021/10/24 09:25:19;;;;;;;0.10;0.10;;;8.50;99.90;;;;;;6322763;22;20018;-81
2021/10/24 09:27:53;;;;;;;0.10;0.10;;;8.60;99.90;;;;;;6297367;22;20022;-81
2021/10/24 09:30:25;;;;;;;0.10;0.10;;;8.60;99.90;;;;;;6297375;22;20016;-81
2021/10/24 09:32:59;;;;;;;0.00;0.00;;;8.70;99.90;;;;;;6297214;22;20516;-81
2021/10/24 09:35:29;;;;;;;0.00;0.00;;;8.80;99.90;;;;;;6323119;22;20458;-81
2021/10/24 09:38:07;;;;;;;0.10;0.10;;;8.90;99.90;;;;;;6322906;22;20026;-81
2021/10/24 09:40:38;;;;;;;0.10;0.10;;;9.10;99.90;;;;;;6297334;22;20030;-81
2021/10/24 09:43:30;;;;;;;0.03;0.03;;;9.10;99.90;;;;;;6297252;22;20026;-81
2021/10/24 09:45:56;;;;;;;0.03;0.03;;;9.20;99.90;;;;;;6296592;22;20020;-81
2021/10/24 09:48:29;;;;;;;0.00;0.00;;;9.20;99.90;;;;;;6322721;22;20073;-80
2021/10/24 09:51:00;;;;;;;0.00;0.00;;;9.30;99.90;;;;;;6297222;22;20014;-80
2021/10/24 09:53:36;;;;;;;0.10;0.10;;;9.40;99.90;;;;;;6297311;22;20070;-81
2021/10/24 09:56:07;;;;;;;;;;;9.40;99.90;;;;;;6272663;22;20015;-81
2021/10/24 09:58:38;;;;;;;0.00;0.00;;;9.50;99.90;;;;;;6297515;22;19911;-81
2021/10/24 10:01:07;;;;;;;0.00;0.00;;;9.50;99.90;;;;;;6297096;22;20105;-80
2021/10/24 10:03:34;;;;;;;0.00;0.00;;;9.60;99.90;;;;;;6297811;22;20340;-81
2021/10/24 10:06:02;;;;;;;0.00;0.00;;;9.70;99.90;;;;;;6296944;22;20050;-81
2021/10/24 10:08:29;;;;;;;0.10;0.10;;;9.70;99.90;;;;;;6297453;22;20011;-81
2021/10/24 10:11:12;;;;;;;0.00;0.00;;;9.80;99.90;;;;;;6296975;22;20054;-81
2021/10/24 10:13:42;;;;;;;0.05;0.05;;;10.00;99.90;;;;;;6322567;22;20011;-81
2021/10/24 10:16:12;;;;;;;0.00;0.00;;;9.90;99.90;;;;;;6296575;22;20017;-81
2021/10/24 10:18:57;;;;;;;0.10;0.10;;;10.00;99.90;;;;;;6297763;22;20081;-81
2021/10/24 10:21:29;;;;;;;0.00;0.00;;;10.10;99.90;;;;;;6322378;22;20061;-81
2021/10/24 10:23:56;;;;;;;0.10;0.10;;;10.20;99.90;;;;;;6296946;22;20014;-81
2021/10/24 10:26:44;;;;;;;0.00;0.00;;;10.20;99.90;;;;;;6247043;22;20366;-81
2021/10/24 10:29:31;;;;;;;0.00;0.00;;;10.30;99.90;;;;;;6322443;22;20019;-81
2021/10/24 10:32:12;;;;;;;0.05;0.05;;;10.30;99.90;;;;;;6296645;22;20019;-80
2021/10/24 10:34:57;;;;;;;0.10;0.10;;;10.40;99.90;;;;;;6297299;22;20422;-81
2021/10/24 10:37:50;;;;;;;0.10;0.10;;;10.40;99.90;;;;;;6296938;22;20033;-82
2021/10/24 10:40:26;;;;;;;0.00;0.00;;;10.50;99.90;;;;;;6297297;22;20015;-81
2021/10/24 10:43:05;;;;;;;0.10;0.10;;;10.50;99.90;;;;;;6297008;22;20007;-82
2021/10/24 10:45:35;;;;;;;0.00;0.00;;;10.60;99.90;;;;;;6296916;22;20015;-81
2021/10/24 10:48:08;;;;;;;0.05;0.05;;;10.60;99.90;;;;;;6296576;22;20486;-80
2021/10/24 10:50:38;;;;;;;0.00;0.00;;;10.70;99.90;;;;;;6297242;22;20441;-81
2021/10/24 10:53:11;;;;;;;0.00;0.00;;;10.80;99.90;;;;;;6297220;22;20022;-81
2021/10/24 10:56:06;;;;;;;0.00;0.00;;;10.80;99.90;;;;;;6297158;22;20141;-81
2021/10/24 10:58:40;;;;;;;0.00;0.00;;;10.90;99.90;;;;;;6271119;22;20781;-81
2021/10/24 11:01:28;;;;;;;0.17;0.17;;;10.90;99.90;;;;;;6271758;22;20015;-81
2021/10/24 11:04:12;;;;;;;0.10;0.10;;;10.90;99.90;;;;;;6277018;22;20066;-81
2021/10/24 11:06:39;;;;;;;0.00;0.00;;;11.00;99.90;;;;;;6297087;22;20019;-81
2021/10/24 11:09:08;;;;;;;0.00;0.00;;;11.00;99.90;;;;;;6296560;22;20019;-81
2021/10/24 11:11:39;;;;;;;0.00;0.00;;;11.00;99.90;;;;;;6296944;22;20452;-81
2021/10/24 11:14:15;;;;;;;0.00;0.00;;;11.00;99.90;;;;;;6296450;22;20015;-82
2021/10/24 11:16:45;;;;;;;;;;;11.10;99.90;;;;;;6297483;22;20409;-81
2021/10/24 11:19:31;;;;;;;0.00;0.00;;;11.10;99.90;;;;;;6296204;22;19915;-81
2021/10/24 11:21:58;;;;;;;;;;;11.10;99.90;;;;;;6322489;22;20444;-81
2021/10/24 11:24:58;;;;;;;0.00;0.00;;;11.10;99.90;;;;;;6322490;22;19986;-81
2021/10/24 11:27:31;;;;;;;0.00;0.00;;;11.10;99.90;;;;;;6322701;22;20452;-81
2021/10/24 11:30:03;;;;;;;0.10;0.10;;;11.10;99.90;;;;;;6271812;22;20017;-81
2021/10/24 11:32:35;;;;;;;0.00;0.00;;;11.10;99.90;;;;;;6298715;22;20027;-81
2021/10/24 11:35:22;;;;;;;0.00;0.00;;;11.20;99.90;;;;;;6323487;22;20016;-81
2021/10/24 11:37:51;;;;;;;0.00;0.00;;;11.20;99.90;;;;;;6273511;22;20077;-81
2021/10/24 11:40:25;;;;;;;0.00;0.00;;;11.20;99.90;;;;;;6298283;22;20119;-82
2021/10/24 11:43:22;;;;;;;0.65;0.20;;;11.20;99.90;;;;;;6298485;22;20011;-82
2021/10/24 11:45:57;;;;;;;0.00;0.00;;;11.20;99.90;;;;;;6248387;22;20515;-81
2021/10/24 11:48:32;;;;;;;0.00;0.00;;;11.30;99.90;;;;;;6298888;22;20018;-81
2021/10/24 11:51:00;;;;;;;0.00;0.00;;;11.30;99.90;;;;;;6298096;22;20019;-81
2021/10/24 11:53:35;;;;;;;0.10;0.10;;;11.30;99.90;;;;;;6298468;22;20444;-82
2021/10/24 11:56:07;;;;;;;0.00;0.00;;;11.40;99.90;;;;;;6323722;22;20019;-82
2021/10/24 11:59:04;;;;;;;0.00;0.00;;;11.50;99.90;;;;;;6298635;22;20714;-82
2021/10/24 12:01:33;;;;;;;0.00;0.00;;;11.40;99.90;;;;;;6324425;22;20435;-82
2021/10/24 12:04:10;;;;;;;0.00;0.00;;;11.50;99.90;;;;;;6298366;22;20021;-82
2021/10/24 12:06:52;;;;;;;0.00;0.00;;;11.50;99.90;;;;;;6298455;22;20345;-82
2021/10/24 12:09:28;;;;;;;0.00;0.00;;;11.50;99.90;;;;;;6298175;22;20023;-82
2021/10/24 12:12:04;;;;;;;;;;;11.50;99.90;;;;;;6324383;22;20027;-82
2021/10/24 12:14:30;;;;;;;0.10;0.10;;;11.50;99.90;;;;;;6298510;22;19919;-82
2021/10/24 12:16:58;;;;;;;0.15;0.08;;;11.50;99.90;;;;;;6273461;22;20522;-82
2021/10/24 12:19:30;;;;;;;0.08;0.08;;;11.50;99.90;;;;;;6297827;22;20018;-82
2021/10/24 12:22:06;;;;;;;0.63;0.10;;;11.50;99.90;;;;;;6274081;22;20018;-81
2021/10/24 12:24:44;;;;;;;0.10;0.10;;;11.50;99.90;;;;;;6323934;22;20619;-82
2021/10/24 12:27:23;;;;;;;0.00;0.00;;;11.50;99.90;;;;;;6298028;22;20680;-81
2021/10/24 12:29:55;;;;;;;0.00;0.00;;;11.60;99.90;;;;;;6298540;22;20015;-81
2021/10/24 12:32:22;;;;;;;0.00;0.00;;;11.60;99.90;;;;;;6272956;22;20119;-82
2021/10/24 12:35:10;;;;;;;0.17;0.17;;;11.60;99.90;;;;;;6248106;22;20047;-82
2021/10/24 12:37:38;;;;;;;0.00;0.00;;;11.60;99.90;;;;;;6298367;22;20034;-81
2021/10/24 12:40:22;;;;;;;0.00;0.00;;;11.60;99.90;;;;;;6297647;22;20019;-81
2021/10/24 12:43:07;;;;;;;0.10;0.10;;;11.60;99.90;;;;;;6323389;22;20030;-81
2021/10/24 12:45:54;;;;;;;0.10;0.10;;;11.60;99.90;;;;;;6297894;22;20023;-82
2021/10/24 12:48:42;;;;;;;0.10;0.10;;;11.60;99.90;;;;;;6297763;22;20047;-81
2021/10/24 12:51:30;;;;;;;0.00;0.00;;;11.60;99.90;;;;;;6297246;22;20015;-81
2021/10/24 12:54:00;;;;;;;0.00;0.00;;;11.60;99.90;;;;;;6299525;22;20440;-81
2021/10/24 12:56:28;;;;;;;0.00;0.00;;;11.60;99.90;;;;;;6297657;22;20015;-82
2021/10/24 12:58:55;;;;;;;0.00;0.00;;;11.60;99.90;;;;;;6272925;22;20012;-81
2021/10/24 13:01:33;;;;;;;0.10;0.00;;;11.60;99.90;;;;;;6297779;22;20062;-82
2021/10/24 13:04:02;;;;;;;0.00;0.00;;;11.50;99.90;;;;;;6298049;22;20019;-82
2021/10/24 13:06:29;;;;;;;0.10;0.10;;;11.60;99.90;;;;;;6297363;22;20011;-81
2021/10/24 13:08:58;;;;;;;0.00;0.00;;;11.60;99.90;;;;;;6323311;22;20054;-82
2021/10/24 13:11:26;;;;;;;0.00;0.00;;;11.60;99.90;;;;;;6247464;22;20018;-81